Aviation Digital Data Service (ADDS)

Output produced by METARs form (1422 UTC 22 April 2019)
found at http://www.aviationweather.gov/metar/data/
 
Forecast for: DNPO (PORT HARCOURT , NG)
Text: TAF DNPO 220950Z 2212/2318 24010KT 9999 BKN013 FEW020CB
Forecast period: 1200 to 1900 UTC 22 April 2019
Forecast type: FROM: standard forecast or significant change
Winds: from the WSW (240 degrees) at 12 MPH (10 knots; 5.1 m/s)
Visibility: 6 or more miles 10+ km)
Ceiling: 1300 feet AGL
Clouds: broken clouds at 1300 feet AGL
few clouds at 2000 feet AGL
Weather: no significant weather forecast for this period
Text: TEMPO 2215/2218 TS
Forecast period: 1500 to 1800 UTC 22 April 2019
Forecast type: TEMPORARY: The following changes expected for less than half the time period
Visibility: missing
Ceiling: unknown
Clouds: missing
Weather: TS  (thunderstorm)
Text: BECMG 2219/2221 00000KT SCT010
Forecast period: 1900 UTC 22 April 2019 to 1800 UTC 23 April 2019
Forecast type: BECOMING: Conditions expected to become as follows by 2100 UTC 22 April 2019
Winds: calm
Visibility: 6 or more miles 10+ km)
Ceiling: at least 12,000 feet AGL
Clouds: scattered clouds at 1000 feet AGL
Weather: no significant weather forecast for this period